Aviation Digital Data Service (ADDS)

Output produced by METARs form (1146 UTC 22 January 2022)
found at http://aviationweather.gov/metar/data/
 
METAR text: EHGG 221125Z AUTO 27003KT 240V310 6000 -UP FEW004 SCT007 BKN008 07/06 Q1032 TEMPO BKN014
Conditions at: EHGG (GRONINGEN/EELDE , NL) observed 1125 UTC 22 January 2022
Temperature: 7.0°C (45°F)
Dewpoint: 6.0°C (43°F) [RH = 93%]
Pressure (altimeter): 30.47 inches Hg (1032.0 mb)
Winds: from the W (270 degrees) at 3 MPH (3 knots; 1.5 m/s)
Visibility: 4 miles ( 6 km)
Ceiling: 800 feet AGL
Clouds: few clouds at 400 feet AGL
scattered clouds at 700 feet AGL
broken clouds at 800 feet AGL
Weather: UP  (unknown precipitation)

METAR text: EHGG 221055Z AUTO 30005KT 250V340 7000 FEW003 SCT005 BKN008 06/06 Q1032 REDZ BECMG 9999 BKN014
Conditions at: EHGG (GRONINGEN/EELDE , NL) observed 1055 UTC 22 January 2022
Temperature: 6.0°C (43°F)
Dewpoint: 6.0°C (43°F) [RH = 100%]
Pressure (altimeter): 30.47 inches Hg (1032.0 mb)
Winds: from the WNW (300 degrees) at 6 MPH (5 knots; 2.6 m/s)
Visibility: 4 miles ( 7 km)
Ceiling: 800 feet AGL
Clouds: few clouds at 300 feet AGL
scattered clouds at 500 feet AGL
broken clouds at 800 feet AGL
Weather: no significant weather observed at this time

Forecast for: EHGG (GRONINGEN/EELDE , NL)
Text: TAF EHGG 221113Z 2212/2318 29008KT 9999 BKN016
Forecast period: 1200 to 2000 UTC 22 January 2022
Forecast type: FROM: standard forecast or significant change
Winds: from the WNW (290 degrees) at 9 MPH (8 knots; 4.1 m/s)
Visibility: 6 or more miles (10+ km)
Ceiling: 1600 feet AGL
Clouds: broken clouds at 1600 feet AGL
Weather: no significant weather forecast for this period
Text: PROB40
Forecast period: 1200 to 1800 UTC 22 January 2022
Forecast type: TEMPORARY: The following changes expected for less than half the time period
Visibility: 2.49 miles (4.01 km)
Ceiling: 1200 feet AGL
Clouds: broken clouds at 1200 feet AGL
Weather: -DZ -RA  (light drizzle, light rain)
Text: TEMPO 2212/2218 4000 -DZRA BKN012
Forecast period: 2000 UTC 22 January 2022 to 0900 UTC 23 January 2022
Forecast type: BECOMING: Conditions expected to become as follows by 2300 UTC 22 January 2022
Winds: from the WNW (290 degrees) at 9 MPH (8 knots; 4.1 m/s)
Visibility: 2.49 miles (4.01 km)
Ceiling: 1600 feet AGL
Clouds: broken clouds at 1600 feet AGL
Weather: BR  (mist)
Text: BECMG 2220/2223 4000 BR
Forecast period: 0200 to 1000 UTC 23 January 2022
Forecast type: PROBABLE: 30 percent likelihood of the following during this time
Visibility: 0.50 miles (0.80 km)
Ceiling: 100 feet AGL
Clouds: broken clouds at 100 feet AGL
Weather: FG  (fog)
Text: PROB30 2302/2310 0800 FG BKN001
Forecast period: 0900 to 1800 UTC 23 January 2022
Forecast type: BECOMING: Conditions expected to become as follows by 1200 UTC 23 January 2022
Winds: from the WNW (290 degrees) at 9 MPH (8 knots; 4.1 m/s)
Visibility: 5 miles (8 km)
Ceiling: 1600 feet AGL
Clouds: broken clouds at 1600 feet AGL
Weather: NSW  (no significant weather)